Costa Fascinosa — ICPO — position and weather

sailwx.info

Track history (hours):
 
Tides and Currents Weather Stations Pressure Air Temp Water Temp Dewpoint Dewpoint Depression Visibility Wind Speed Wind Dir Waves Ship Positions

Costa Fascinosa

Last reported at 2017-Apr-29 13:24 UTC. Time now 2017-Apr-29 13:33 UTC.
Position N 43°21' E 005°20'.

Length 291 m; draft 8.3 m.

Type: Passenger vessel. MMSI: 247313500.

Date/timePositionNaut miles runAvg speedWind from/ knotsBaromVisibWave heightAir tempDewpointWater temp
2017-Apr-29 13:24N 43°21' E 005°20'0 0.0
2017-Apr-29 12:51N 43°21' E 005°20'0 0.0
2017-Apr-29 12:30N 43°21' E 005°20'0 0.0
2017-Apr-29 12:00N 43°21' E 005°20'0 0.0
2017-Apr-29 11:30N 43°21' E 005°20'0 0.0
2017-Apr-29 11:00N 43°21' E 005°20'0 0.0
2017-Apr-29 10:27N 43°21' E 005°20'0 0.0
2017-Apr-29 09:48N 43°21' E 005°20'0 0.0
2017-Apr-29 09:12N 43°21' E 005°20'0 0.0
2017-Apr-29 09:00N 43°21' E 005°20'0 0.0
2017-Apr-29 08:30N 43°21' E 005°20'0 0.0
2017-Apr-29 07:45N 43°21' E 005°20'0 0.0
2017-Apr-29 07:30N 43°21' E 005°20'0 0.0
2017-Apr-29 07:00N 43°21' E 005°20'0 0.0
2017-Apr-29 06:30N 43°21' E 005°20'1 2.2
2017-Apr-29 06:00N 43°21' E 005°18'5 9.0
2017-Apr-29 05:30N 43°18' E 005°13'714.2
2017-Apr-29 05:00N 43°12' E 005°10'2418.2
2017-Apr-29 03:41N 42°58' E 004°44'157 6.9
2017-Apr-28 05:03N 41°07' E 002°15'012.6
2017-Apr-28 05:00N 41°06' E 002°15'612.6
2017-Apr-28 04:30N 41°02' E 002°21'612.3
2017-Apr-28 04:00N 40°56' E 002°24'612.1
2017-Apr-28 03:30N 40°51' E 002°28'612.0
2017-Apr-28 03:00N 40°45' E 002°31'611.8
2017-Apr-28 02:30N 40°40' E 002°35'611.5
2017-Apr-28 02:00N 40°35' E 002°38'611.4
2017-Apr-28 01:30N 40°30' E 002°41'611.6
2017-Apr-28 01:00N 40°25' E 002°45'611.7
2017-Apr-28 00:30N 40°19' E 002°48'611.7
2017-Apr-28 00:00N 40°14' E 002°51'611.2
2017-Apr-27 23:30N 40°09' E 002°55'611.1
2017-Apr-27 23:00N 40°07' E 003°02'2011.5
2017-Apr-27 21:17N 39°57' E 003°24'311.5
2017-Apr-27 21:00N 39°56' E 003°28'611.7
2017-Apr-27 20:30N 39°52' E 003°34'611.7
2017-Apr-27 20:00N 39°49' E 003°40'611.8
2017-Apr-27 19:30N 39°45' E 003°46'811.9
2017-Apr-27 18:49N 39°41' E 003°55'412.1
2017-Apr-27 18:30N 39°39' E 003°59'611.8
2017-Apr-27 18:00N 39°35' E 004°05'611.7
2017-Apr-27 17:29N 39°31' E 004°11'28418.0
2017-Apr-27 01:43N 37°41' E 009°47'418.9
2017-Apr-27 01:29N 37°40' E 009°52'919.1
2017-Apr-27 01:00N 37°39' E 010°04'1019.0
2017-Apr-27 00:30N 37°39' E 010°16'918.6
2017-Apr-27 00:00N 37°37' E 010°27'918.5
2017-Apr-26 23:30N 37°36' E 010°39'1018.8
2017-Apr-26 22:59N 37°34' E 010°51'2118.5
2017-Apr-26 21:50N 37°26' E 011°16'618.9
2017-Apr-26 21:30N 37°23' E 011°23'1018.9
2017-Apr-26 21:00N 37°19' E 011°34'919.0
2017-Apr-26 20:30N 37°15' E 011°44'1118.9
2017-Apr-26 19:54N 37°09' E 011°56'718.5
2017-Apr-26 19:30N 37°05' E 012°04'918.7
2017-Apr-26 19:00N 37°01' E 012°15'918.5
2017-Apr-26 18:30N 36°57' E 012°25'918.4
2017-Apr-26 18:00N 36°52' E 012°35'918.5
2017-Apr-26 17:30N 36°48' E 012°45'918.5
2017-Apr-26 17:00N 36°44' E 012°56'918.6
2017-Apr-26 16:30N 36°39' E 013°06'1019.2
2017-Apr-26 16:00N 36°36' E 013°17'1019.2
2017-Apr-26 15:29N 36°31' E 013°28'919.1
2017-Apr-26 15:00N 36°27' E 013°38'1919.3
2017-Apr-26 14:00N 36°17' E 013°59'1019.6
2017-Apr-26 13:30N 36°13' E 014°09'1019.6
2017-Apr-26 13:00N 36°08' E 014°20'1019.4
2017-Apr-26 12:30N 36°02' E 014°29'815.2
2017-Apr-26 12:00N 35°55' E 014°33'2 1.3
2017-Apr-26 10:13N 35°53' E 014°31'0 0.0
2017-Apr-26 09:58N 35°53' E 014°31'0 0.0
2017-Apr-26 06:22N 35°53' E 014°31'0 0.0
2017-Apr-26 05:49N 35°53' E 014°31'0 0.0
2017-Apr-26 05:24N 35°53' E 014°31'1 1.7
2017-Apr-26 04:58N 35°54' E 014°31'4 8.9
2017-Apr-26 04:30N 35°57' E 014°34'1019.7
2017-Apr-26 04:00N 36°04' E 014°25'1020.6
2017-Apr-26 03:30N 36°11' E 014°15'1020.7
2017-Apr-26 03:00N 36°17' E 014°05'1120.9
2017-Apr-26 02:30N 36°23' E 013°55'1121.0
2017-Apr-26 01:59N 36°29' E 013°44'1020.1
2017-Apr-26 01:30N 36°35' E 013°34'918.1
2017-Apr-26 01:00N 36°40' E 013°25'1018.2
2017-Apr-26 00:28N 36°46' E 013°15'8218.4
2017-Apr-25 20:02N 37°42' E 012°01'418.3
2017-Apr-25 19:48N 37°45' E 011°57'1417.7
2017-Apr-25 19:00N 37°59' E 011°56'917.8
2017-Apr-25 18:30N 38°08' E 012°00'918.0
2017-Apr-25 18:00N 38°11' E 012°11'1019.3
2017-Apr-25 17:30N 38°13' E 012°23'1019.7
2017-Apr-25 17:00N 38°15' E 012°35'1019.8
2017-Apr-25 16:30N 38°17' E 012°47'1019.7
2017-Apr-25 16:00N 38°18' E 012°60'1019.1
2017-Apr-25 15:30N 38°17' E 013°12'918.8
2017-Apr-25 15:00N 38°15' E 013°24'713.9
2017-Apr-25 14:30N 38°08' E 013°25'2 2.2
2017-Apr-25 13:28N 38°08' E 013°22'0 0.0
2017-Apr-25 12:58N 38°08' E 013°22'0 0.0
2017-Apr-25 12:28N 38°08' E 013°22'0 0.0
2017-Apr-25 11:58N 38°08' E 013°22'0 0.0
2017-Apr-25 11:28N 38°08' E 013°22'0 0.0
2017-Apr-25 10:58N 38°08' E 013°22'0 0.0
2017-Apr-25 10:28N 38°08' E 013°22'0 0.0
2017-Apr-25 09:58N 38°08' E 013°22'0 0.0
2017-Apr-25 09:28N 38°08' E 013°22'0 0.0
2017-Apr-25 08:58N 38°08' E 013°22'0 0.0
2017-Apr-25 08:28N 38°08' E 013°22'0 0.0
2017-Apr-25 07:58N 38°08' E 013°22'0 0.0
2017-Apr-25 07:28N 38°08' E 013°22'0 0.0
2017-Apr-25 06:58N 38°08' E 013°22'0 0.0
2017-Apr-25 06:29N 38°08' E 013°22'1 2.1
2017-Apr-25 06:01N 38°07' E 013°23'510.8
2017-Apr-25 05:31N 38°12' E 013°26'1019.2
2017-Apr-25 05:01N 38°21' E 013°29'1019.2
2017-Apr-25 04:30N 38°31' E 013°32'1019.2
2017-Apr-25 04:00N 38°40' E 013°34'1019.2
2017-Apr-25 03:29N 38°50' E 013°37'1415.8
2017-Apr-25 02:34N 39°04' E 013°42'613.5
2017-Apr-25 02:06N 39°10' E 013°43'213.6
2017-Apr-25 01:58N 39°12' E 013°44'613.6
2017-Apr-25 01:31N 39°18' E 013°45'713.6
2017-Apr-25 01:00N 39°25' E 013°47'713.7
2017-Apr-25 00:30N 39°32' E 013°49'713.5
2017-Apr-25 00:00N 39°38' E 013°50'913.5
2017-Apr-24 23:21N 39°46' E 013°54'613.6
2017-Apr-24 22:56N 39°52' E 013°56'613.6
2017-Apr-24 22:30N 39°58' E 013°58'713.3
2017-Apr-24 22:00N 40°04' E 013°60'712.9
2017-Apr-24 21:29N 40°11' E 014°02'612.7
2017-Apr-24 21:00N 40°17' E 014°03'1412.9
2017-Apr-24 19:57N 40°30' E 014°08'191 9.5
2017-Apr-23 23:51N 42°02' E 010°25'819.0
2017-Apr-23 23:25N 42°07' E 010°16'2818.4
2017-Apr-23 21:53N 42°28' E 009°50'819.3
2017-Apr-23 21:28N 42°35' E 009°46'919.1
2017-Apr-23 21:00N 42°44' E 009°42'1019.2
2017-Apr-23 20:30N 42°52' E 009°38'1019.0
2017-Apr-23 20:00N 43°02' E 009°35'918.7
2017-Apr-23 19:30N 43°10' E 009°29'1019.1
2017-Apr-23 19:00N 43°18' E 009°22'1019.0
2017-Apr-23 18:30N 43°26' E 009°15'918.6
2017-Apr-23 18:00N 43°34' E 009°08'918.3
2017-Apr-23 17:30N 43°42' E 009°01'918.2
2017-Apr-23 17:00N 43°50' E 008°55'918.0
2017-Apr-23 16:30N 43°58' E 008°49'918.2
2017-Apr-23 16:00N 44°05' E 008°43'918.7
2017-Apr-23 15:30N 44°13' E 008°36'713.9
2017-Apr-23 15:00N 44°19' E 008°30'1 0.8
2017-Apr-23 13:59N 44°19' E 008°29'0 0.0
2017-Apr-23 13:23N 44°19' E 008°29'0 0.0
2017-Apr-23 12:59N 44°19' E 008°29'0 0.0
2017-Apr-23 12:29N 44°19' E 008°29'0 0.0
2017-Apr-23 11:59N 44°19' E 008°29'0 0.0
2017-Apr-23 11:29N 44°19' E 008°29'0 0.0
2017-Apr-23 10:56N 44°19' E 008°29'0 0.0
2017-Apr-23 10:26N 44°19' E 008°29'0 0.0
2017-Apr-23 09:56N 44°19' E 008°29'0 0.0
2017-Apr-23 09:29N 44°19' E 008°29'0 0.0
2017-Apr-23 08:53N 44°19' E 008°29'0 0.0
2017-Apr-23 08:29N 44°19' E 008°29'0 0.0
2017-Apr-23 07:59N 44°19' E 008°29'0 0.0
2017-Apr-23 07:29N 44°19' E 008°29'0 0.0
2017-Apr-23 06:59N 44°19' E 008°29'0 0.5
2017-Apr-23 06:30N 44°19' E 008°29'2 4.3
2017-Apr-23 06:00N 44°18' E 008°32'917.3
2017-Apr-23 05:30N 44°09' E 008°28'1018.9
2017-Apr-23 04:58N 44°01' E 008°21'917.8
2017-Apr-23 04:29N 43°53' E 008°14'1312.7
2017-Apr-23 03:29N 43°44' E 008°03'612.8
2017-Apr-23 03:00N 43°40' E 007°56'612.8
2017-Apr-23 02:31N 43°37' E 007°49'612.7
2017-Apr-23 02:00N 43°33' E 007°41'612.6
2017-Apr-23 01:30N 43°29' E 007°34'612.6
2017-Apr-23 01:01N 43°26' E 007°27'612.7
2017-Apr-23 00:30N 43°22' E 007°20'612.7
2017-Apr-23 00:00N 43°18' E 007°13'612.7
2017-Apr-22 23:30N 43°14' E 007°07'912.5
2017-Apr-22 22:46N 43°09' E 006°56'312.8
2017-Apr-22 22:29N 43°07' E 006°52'612.7
2017-Apr-22 22:00N 43°04' E 006°45'712.6
2017-Apr-22 21:25N 42°60' E 006°36'4212.6
2017-Apr-22 18:07N 43°01' E 005°39'1912.9
2017-Apr-22 16:40N 43°09' E 005°16'212.5
2017-Apr-22 16:31N 43°10' E 005°14'611.7
2017-Apr-22 16:01N 43°15' E 005°10'611.1
2017-Apr-22 15:30N 43°19' E 005°15'4 3.1
2017-Apr-22 14:09N 43°21' E 005°20'0 0.0
2017-Apr-22 10:39N 43°21' E 005°20'0 0.0
2017-Apr-22 08:09N 43°21' E 005°20'0 0.0
2017-Apr-22 07:45N 43°21' E 005°20'0 0.0
2017-Apr-22 06:45N 43°21' E 005°20'0 0.1
2017-Apr-22 06:30N 43°21' E 005°20'1 2.4
2017-Apr-22 05:59N 43°21' E 005°18'4 8.9
2017-Apr-22 05:30N 43°19' E 005°14'713.3
2017-Apr-22 05:00N 43°12' E 005°10'3813.3
2017-Apr-22 02:09N 42°45' E 004°34'11013.3
2017-Apr-21 17:52N 41°30' E 002°44'513.3
2017-Apr-21 17:28N 41°27' E 002°39'2312.0
2017-Apr-21 15:32N 41°17' E 002°11'012.5
2017-Apr-21 15:30N 41°17' E 002°11'4 1.0
2017-Apr-21 11:20N 41°21' E 002°10'0 0.0
2017-Apr-21 09:20N 41°21' E 002°10'0 0.0
2017-Apr-21 08:59N 41°21' E 002°10'0 0.0
2017-Apr-21 08:30N 41°21' E 002°10'0 0.0
2017-Apr-21 08:01N 41°21' E 002°10'0 0.0
2017-Apr-21 07:29N 41°21' E 002°10'0 0.0
2017-Apr-21 07:01N 41°21' E 002°10'6 5.6
2017-Apr-21 05:54N 41°15' E 002°12'611.3
2017-Apr-21 05:25N 41°10' E 002°15'512.1
2017-Apr-21 05:01N 41°07' E 002°20'612.2
2017-Apr-21 04:30N 41°02' E 002°25'612.2
2017-Apr-21 04:00N 40°57' E 002°30'612.3
2017-Apr-21 03:30N 40°52' E 002°35'612.3
2017-Apr-21 03:00N 40°47' E 002°40'612.1
2017-Apr-21 02:30N 40°42' E 002°45'611.7
2017-Apr-21 02:00N 40°38' E 002°50'611.7
2017-Apr-21 01:30N 40°33' E 002°54'611.6
2017-Apr-21 01:00N 40°29' E 002°59'611.4
2017-Apr-21 00:30N 40°24' E 003°03'611.8
2017-Apr-21 00:00N 40°19' E 003°08'1112.3
2017-Apr-20 23:07N 40°11' E 003°17'312.0
2017-Apr-20 22:54N 40°08' E 003°19'1313.0
2017-Apr-20 21:56N 39°59' E 003°29'818.6
2017-Apr-20 21:30N 39°53' E 003°35'918.6
2017-Apr-20 21:00N 39°46' E 003°44'1518.4
2017-Apr-20 20:11N 39°40' E 004°02'418.6
2017-Apr-20 19:59N 39°39' E 004°06'21617.0
2017-Apr-20 07:21N 38°34' E 008°31'27418.1
2017-Apr-19 16:10N 36°26' E 013°37'317.9
2017-Apr-19 16:00N 36°25' E 013°40'917.5
2017-Apr-19 15:30N 36°20' E 013°50'917.6
2017-Apr-19 15:00N 36°17' E 013°60'917.8
2017-Apr-19 14:30N 36°12' E 014°09'1817.8
2017-Apr-19 13:30N 36°03' E 014°28'  
Track history (hours):
 
Tides and Currents Weather Stations Pressure Air Temp Water Temp Dewpoint Dewpoint Depression Visibility Wind Speed Wind Dir Waves Ship Positions

Costa Fascinosa

Last reported at 2017-Apr-29 13:24 UTC. Time now 2017-Apr-29 13:33 UTC.
Position N 43°21' E 005°20'.

Length 291 m; draft 8.3 m.

Type: Passenger vessel. MMSI: 247313500.

Date/timePositionNaut miles runAvg speedWind from/ knotsBaromVisibWave heightAir tempDewpointWater temp
2017-Apr-29 13:24N 43°21' E 005°20'0 0.0
2017-Apr-29 12:51N 43°21' E 005°20'0 0.0
2017-Apr-29 12:30N 43°21' E 005°20'0 0.0
2017-Apr-29 12:00N 43°21' E 005°20'0 0.0
2017-Apr-29 11:30N 43°21' E 005°20'0 0.0
2017-Apr-29 11:00N 43°21' E 005°20'0 0.0
2017-Apr-29 10:27N 43°21' E 005°20'0 0.0
2017-Apr-29 09:48N 43°21' E 005°20'0 0.0
2017-Apr-29 09:12N 43°21' E 005°20'0 0.0
2017-Apr-29 09:00N 43°21' E 005°20'0 0.0
2017-Apr-29 08:30N 43°21' E 005°20'0 0.0
2017-Apr-29 07:45N 43°21' E 005°20'0 0.0
2017-Apr-29 07:30N 43°21' E 005°20'0 0.0
2017-Apr-29 07:00N 43°21' E 005°20'0 0.0
2017-Apr-29 06:30N 43°21' E 005°20'1 2.2
2017-Apr-29 06:00N 43°21' E 005°18'5 9.0
2017-Apr-29 05:30N 43°18' E 005°13'714.2
2017-Apr-29 05:00N 43°12' E 005°10'2418.2
2017-Apr-29 03:41N 42°58' E 004°44'157 6.9
2017-Apr-28 05:03N 41°07' E 002°15'012.6
2017-Apr-28 05:00N 41°06' E 002°15'612.6
2017-Apr-28 04:30N 41°02' E 002°21'612.3
2017-Apr-28 04:00N 40°56' E 002°24'612.1
2017-Apr-28 03:30N 40°51' E 002°28'612.0
2017-Apr-28 03:00N 40°45' E 002°31'611.8
2017-Apr-28 02:30N 40°40' E 002°35'611.5
2017-Apr-28 02:00N 40°35' E 002°38'611.4
2017-Apr-28 01:30N 40°30' E 002°41'611.6
2017-Apr-28 01:00N 40°25' E 002°45'611.7
2017-Apr-28 00:30N 40°19' E 002°48'611.7
2017-Apr-28 00:00N 40°14' E 002°51'611.2
2017-Apr-27 23:30N 40°09' E 002°55'611.1
2017-Apr-27 23:00N 40°07' E 003°02'2011.5
2017-Apr-27 21:17N 39°57' E 003°24'311.5
2017-Apr-27 21:00N 39°56' E 003°28'611.7
2017-Apr-27 20:30N 39°52' E 003°34'611.7
2017-Apr-27 20:00N 39°49' E 003°40'611.8
2017-Apr-27 19:30N 39°45' E 003°46'811.9
2017-Apr-27 18:49N 39°41' E 003°55'412.1
2017-Apr-27 18:30N 39°39' E 003°59'611.8
2017-Apr-27 18:00N 39°35' E 004°05'611.7
2017-Apr-27 17:29N 39°31' E 004°11'28418.0
2017-Apr-27 01:43N 37°41' E 009°47'418.9
2017-Apr-27 01:29N 37°40' E 009°52'919.1
2017-Apr-27 01:00N 37°39' E 010°04'1019.0
2017-Apr-27 00:30N 37°39' E 010°16'918.6
2017-Apr-27 00:00N 37°37' E 010°27'918.5
2017-Apr-26 23:30N 37°36' E 010°39'1018.8
2017-Apr-26 22:59N 37°34' E 010°51'2118.5
2017-Apr-26 21:50N 37°26' E 011°16'618.9
2017-Apr-26 21:30N 37°23' E 011°23'1018.9
2017-Apr-26 21:00N 37°19' E 011°34'919.0
2017-Apr-26 20:30N 37°15' E 011°44'1118.9
2017-Apr-26 19:54N 37°09' E 011°56'718.5
2017-Apr-26 19:30N 37°05' E 012°04'918.7
2017-Apr-26 19:00N 37°01' E 012°15'918.5
2017-Apr-26 18:30N 36°57' E 012°25'918.4
2017-Apr-26 18:00N 36°52' E 012°35'918.5
2017-Apr-26 17:30N 36°48' E 012°45'918.5
2017-Apr-26 17:00N 36°44' E 012°56'918.6
2017-Apr-26 16:30N 36°39' E 013°06'1019.2
2017-Apr-26 16:00N 36°36' E 013°17'1019.2
2017-Apr-26 15:29N 36°31' E 013°28'919.1
2017-Apr-26 15:00N 36°27' E 013°38'1919.3
2017-Apr-26 14:00N 36°17' E 013°59'1019.6
2017-Apr-26 13:30N 36°13' E 014°09'1019.6
2017-Apr-26 13:00N 36°08' E 014°20'1019.4
2017-Apr-26 12:30N 36°02' E 014°29'815.2
2017-Apr-26 12:00N 35°55' E 014°33'2 1.3
2017-Apr-26 10:13N 35°53' E 014°31'0 0.0
2017-Apr-26 09:58N 35°53' E 014°31'0 0.0
2017-Apr-26 06:22N 35°53' E 014°31'0 0.0
2017-Apr-26 05:49N 35°53' E 014°31'0 0.0
2017-Apr-26 05:24N 35°53' E 014°31'1 1.7
2017-Apr-26 04:58N 35°54' E 014°31'4 8.9
2017-Apr-26 04:30N 35°57' E 014°34'1019.7
2017-Apr-26 04:00N 36°04' E 014°25'1020.6
2017-Apr-26 03:30N 36°11' E 014°15'1020.7
2017-Apr-26 03:00N 36°17' E 014°05'1120.9
2017-Apr-26 02:30N 36°23' E 013°55'1121.0
2017-Apr-26 01:59N 36°29' E 013°44'1020.1
2017-Apr-26 01:30N 36°35' E 013°34'918.1
2017-Apr-26 01:00N 36°40' E 013°25'1018.2
2017-Apr-26 00:28N 36°46' E 013°15'8218.4
2017-Apr-25 20:02N 37°42' E 012°01'418.3
2017-Apr-25 19:48N 37°45' E 011°57'1417.7
2017-Apr-25 19:00N 37°59' E 011°56'917.8
2017-Apr-25 18:30N 38°08' E 012°00'918.0
2017-Apr-25 18:00N 38°11' E 012°11'1019.3
2017-Apr-25 17:30N 38°13' E 012°23'1019.7
2017-Apr-25 17:00N 38°15' E 012°35'1019.8
2017-Apr-25 16:30N 38°17' E 012°47'1019.7
2017-Apr-25 16:00N 38°18' E 012°60'1019.1
2017-Apr-25 15:30N 38°17' E 013°12'918.8
2017-Apr-25 15:00N 38°15' E 013°24'713.9
2017-Apr-25 14:30N 38°08' E 013°25'2 2.2
2017-Apr-25 13:28N 38°08' E 013°22'0 0.0
2017-Apr-25 12:58N 38°08' E 013°22'0 0.0
2017-Apr-25 12:28N 38°08' E 013°22'0 0.0
2017-Apr-25 11:58N 38°08' E 013°22'0 0.0
2017-Apr-25 11:28N 38°08' E 013°22'0 0.0
2017-Apr-25 10:58N 38°08' E 013°22'0 0.0
2017-Apr-25 10:28N 38°08' E 013°22'0 0.0
2017-Apr-25 09:58N 38°08' E 013°22'0 0.0
2017-Apr-25 09:28N 38°08' E 013°22'0 0.0
2017-Apr-25 08:58N 38°08' E 013°22'0 0.0
2017-Apr-25 08:28N 38°08' E 013°22'0 0.0
2017-Apr-25 07:58N 38°08' E 013°22'0 0.0
2017-Apr-25 07:28N 38°08' E 013°22'0 0.0
2017-Apr-25 06:58N 38°08' E 013°22'0 0.0
2017-Apr-25 06:29N 38°08' E 013°22'1 2.1
2017-Apr-25 06:01N 38°07' E 013°23'510.8
2017-Apr-25 05:31N 38°12' E 013°26'1019.2
2017-Apr-25 05:01N 38°21' E 013°29'1019.2
2017-Apr-25 04:30N 38°31' E 013°32'1019.2
2017-Apr-25 04:00N 38°40' E 013°34'1019.2
2017-Apr-25 03:29N 38°50' E 013°37'1415.8
2017-Apr-25 02:34N 39°04' E 013°42'613.5
2017-Apr-25 02:06N 39°10' E 013°43'213.6
2017-Apr-25 01:58N 39°12' E 013°44'613.6
2017-Apr-25 01:31N 39°18' E 013°45'713.6
2017-Apr-25 01:00N 39°25' E 013°47'713.7
2017-Apr-25 00:30N 39°32' E 013°49'713.5
2017-Apr-25 00:00N 39°38' E 013°50'913.5
2017-Apr-24 23:21N 39°46' E 013°54'613.6
2017-Apr-24 22:56N 39°52' E 013°56'613.6
2017-Apr-24 22:30N 39°58' E 013°58'713.3
2017-Apr-24 22:00N 40°04' E 013°60'712.9
2017-Apr-24 21:29N 40°11' E 014°02'612.7
2017-Apr-24 21:00N 40°17' E 014°03'1412.9
2017-Apr-24 19:57N 40°30' E 014°08'191 9.5
2017-Apr-23 23:51N 42°02' E 010°25'819.0
2017-Apr-23 23:25N 42°07' E 010°16'2818.4
2017-Apr-23 21:53N 42°28' E 009°50'819.3
2017-Apr-23 21:28N 42°35' E 009°46'919.1
2017-Apr-23 21:00N 42°44' E 009°42'1019.2
2017-Apr-23 20:30N 42°52' E 009°38'1019.0
2017-Apr-23 20:00N 43°02' E 009°35'918.7
2017-Apr-23 19:30N 43°10' E 009°29'1019.1
2017-Apr-23 19:00N 43°18' E 009°22'1019.0
2017-Apr-23 18:30N 43°26' E 009°15'918.6
2017-Apr-23 18:00N 43°34' E 009°08'918.3
2017-Apr-23 17:30N 43°42' E 009°01'918.2
2017-Apr-23 17:00N 43°50' E 008°55'918.0
2017-Apr-23 16:30N 43°58' E 008°49'918.2
2017-Apr-23 16:00N 44°05' E 008°43'918.7
2017-Apr-23 15:30N 44°13' E 008°36'713.9
2017-Apr-23 15:00N 44°19' E 008°30'1 0.8
2017-Apr-23 13:59N 44°19' E 008°29'0 0.0
2017-Apr-23 13:23N 44°19' E 008°29'0 0.0
2017-Apr-23 12:59N 44°19' E 008°29'0 0.0
2017-Apr-23 12:29N 44°19' E 008°29'0 0.0
2017-Apr-23 11:59N 44°19' E 008°29'0 0.0
2017-Apr-23 11:29N 44°19' E 008°29'0 0.0
2017-Apr-23 10:56N 44°19' E 008°29'0 0.0
2017-Apr-23 10:26N 44°19' E 008°29'0 0.0
2017-Apr-23 09:56N 44°19' E 008°29'0 0.0
2017-Apr-23 09:29N 44°19' E 008°29'0 0.0
2017-Apr-23 08:53N 44°19' E 008°29'0 0.0
2017-Apr-23 08:29N 44°19' E 008°29'0 0.0
2017-Apr-23 07:59N 44°19' E 008°29'0 0.0
2017-Apr-23 07:29N 44°19' E 008°29'0 0.0
2017-Apr-23 06:59N 44°19' E 008°29'0 0.5
2017-Apr-23 06:30N 44°19' E 008°29'2 4.3
2017-Apr-23 06:00N 44°18' E 008°32'917.3
2017-Apr-23 05:30N 44°09' E 008°28'1018.9
2017-Apr-23 04:58N 44°01' E 008°21'917.8
2017-Apr-23 04:29N 43°53' E 008°14'1312.7
2017-Apr-23 03:29N 43°44' E 008°03'612.8
2017-Apr-23 03:00N 43°40' E 007°56'612.8
2017-Apr-23 02:31N 43°37' E 007°49'612.7
2017-Apr-23 02:00N 43°33' E 007°41'612.6
2017-Apr-23 01:30N 43°29' E 007°34'612.6
2017-Apr-23 01:01N 43°26' E 007°27'612.7
2017-Apr-23 00:30N 43°22' E 007°20'612.7
2017-Apr-23 00:00N 43°18' E 007°13'612.7
2017-Apr-22 23:30N 43°14' E 007°07'912.5
2017-Apr-22 22:46N 43°09' E 006°56'312.8
2017-Apr-22 22:29N 43°07' E 006°52'612.7
2017-Apr-22 22:00N 43°04' E 006°45'712.6
2017-Apr-22 21:25N 42°60' E 006°36'4212.6
2017-Apr-22 18:07N 43°01' E 005°39'1912.9
2017-Apr-22 16:40N 43°09' E 005°16'212.5
2017-Apr-22 16:31N 43°10' E 005°14'611.7
2017-Apr-22 16:01N 43°15' E 005°10'611.1
2017-Apr-22 15:30N 43°19' E 005°15'4 3.1
2017-Apr-22 14:09N 43°21' E 005°20'0 0.0
2017-Apr-22 10:39N 43°21' E 005°20'0 0.0
2017-Apr-22 08:09N 43°21' E 005°20'0 0.0
2017-Apr-22 07:45N 43°21' E 005°20'0 0.0
2017-Apr-22 06:45N 43°21' E 005°20'0 0.1
2017-Apr-22 06:30N 43°21' E 005°20'1 2.4
2017-Apr-22 05:59N 43°21' E 005°18'4 8.9
2017-Apr-22 05:30N 43°19' E 005°14'713.3
2017-Apr-22 05:00N 43°12' E 005°10'3813.3
2017-Apr-22 02:09N 42°45' E 004°34'11013.3
2017-Apr-21 17:52N 41°30' E 002°44'513.3
2017-Apr-21 17:28N 41°27' E 002°39'2312.0
2017-Apr-21 15:32N 41°17' E 002°11'012.5
2017-Apr-21 15:30N 41°17' E 002°11'4 1.0
2017-Apr-21 11:20N 41°21' E 002°10'0 0.0
2017-Apr-21 09:20N 41°21' E 002°10'0 0.0
2017-Apr-21 08:59N 41°21' E 002°10'0 0.0
2017-Apr-21 08:30N 41°21' E 002°10'0 0.0
2017-Apr-21 08:01N 41°21' E 002°10'0 0.0
2017-Apr-21 07:29N 41°21' E 002°10'0 0.0
2017-Apr-21 07:01N 41°21' E 002°10'6 5.6
2017-Apr-21 05:54N 41°15' E 002°12'611.3
2017-Apr-21 05:25N 41°10' E 002°15'512.1
2017-Apr-21 05:01N 41°07' E 002°20'612.2
2017-Apr-21 04:30N 41°02' E 002°25'612.2
2017-Apr-21 04:00N 40°57' E 002°30'612.3
2017-Apr-21 03:30N 40°52' E 002°35'612.3
2017-Apr-21 03:00N 40°47' E 002°40'612.1
2017-Apr-21 02:30N 40°42' E 002°45'611.7
2017-Apr-21 02:00N 40°38' E 002°50'611.7
2017-Apr-21 01:30N 40°33' E 002°54'611.6
2017-Apr-21 01:00N 40°29' E 002°59'611.4
2017-Apr-21 00:30N 40°24' E 003°03'611.8
2017-Apr-21 00:00N 40°19' E 003°08'1112.3
2017-Apr-20 23:07N 40°11' E 003°17'312.0
2017-Apr-20 22:54N 40°08' E 003°19'1313.0
2017-Apr-20 21:56N 39°59' E 003°29'818.6
2017-Apr-20 21:30N 39°53' E 003°35'918.6
2017-Apr-20 21:00N 39°46' E 003°44'1518.4
2017-Apr-20 20:11N 39°40' E 004°02'418.6
2017-Apr-20 19:59N 39°39' E 004°06'21617.0
2017-Apr-20 07:21N 38°34' E 008°31'27418.1
2017-Apr-19 16:10N 36°26' E 013°37'317.9
2017-Apr-19 16:00N 36°25' E 013°40'917.5
2017-Apr-19 15:30N 36°20' E 013°50'917.6
2017-Apr-19 15:00N 36°17' E 013°60'917.8
2017-Apr-19 14:30N 36°12' E 014°09'1817.8
2017-Apr-19 13:30N 36°03' E 014°28'  

Dump ship's entire track history